createdAt,value
2023-02-17T00:01:33.891Z,20.63
2023-02-17T00:04:04.526Z,20.63
2023-02-17T00:06:35.385Z,20.06
2023-02-17T00:09:08.444Z,20.28
2023-02-17T00:11:41.776Z,20.05
2023-02-17T00:14:15.018Z,20.05
2023-02-17T00:16:49.628Z,20.62
2023-02-17T00:19:25.616Z,19.35
2023-02-17T00:22:02.563Z,20.06
2023-02-17T00:24:36.015Z,19.91
2023-02-17T00:27:12.924Z,19.73
2023-02-17T00:29:46.729Z,20.16
2023-02-17T00:32:21.069Z,20.61
2023-02-17T00:34:56.996Z,20.29
2023-02-17T00:37:27.988Z,19.80
2023-02-17T00:40:00.923Z,20.45
2023-02-17T00:42:36.142Z,20.40
2023-02-17T00:45:09.875Z,20.14
2023-02-17T00:47:43.657Z,20.28
2023-02-17T00:50:15.848Z,20.36
2023-02-17T00:52:48.869Z,20.25
2023-02-17T00:55:22.143Z,19.99
2023-02-17T00:57:56.205Z,20.83
2023-02-17T01:00:29.018Z,21.03
2023-02-17T01:03:01.139Z,19.74
2023-02-17T01:05:34.575Z,19.57
2023-02-17T01:08:06.961Z,18.42
2023-02-17T01:10:44.948Z,18.95
2023-02-17T01:13:21.011Z,19.09
2023-02-17T01:15:55.323Z,20.03
2023-02-17T01:18:33.301Z,19.60
2023-02-17T01:21:04.745Z,18.97
2023-02-17T01:23:36.614Z,18.22
2023-02-17T01:26:20.053Z,19.04
2023-02-17T01:28:53.086Z,18.22
2023-02-17T01:31:28.426Z,19.09
2023-02-17T01:34:06.654Z,18.47
2023-02-17T01:36:42.802Z,19.15
2023-02-17T01:39:17.762Z,18.34
2023-02-17T01:41:49.502Z,18.04
2023-02-17T01:44:24.616Z,18.01
2023-02-17T01:46:59.258Z,19.25
2023-02-17T01:49:37.343Z,19.01
2023-02-17T01:52:11.813Z,19.14
2023-02-17T01:54:51.616Z,18.05
2023-02-17T01:57:27.422Z,19.35
2023-02-17T02:00:02.019Z,19.01
2023-02-17T02:02:34.335Z,19.48
2023-02-17T02:05:16.361Z,19.38
2023-02-17T02:07:51.111Z,19.73
2023-02-17T02:10:24.608Z,19.49
2023-02-17T02:12:59.397Z,19.80
2023-02-17T02:15:34.121Z,18.38
2023-02-17T02:18:10.620Z,19.40
2023-02-17T02:20:56.172Z,18.63
2023-02-17T02:23:34.072Z,19.40
2023-02-17T02:26:25.208Z,19.95
2023-02-17T02:29:08.183Z,20.10
2023-02-17T02:31:48.697Z,20.19
2023-02-17T02:34:25.807Z,18.87
2023-02-17T02:37:09.432Z,20.27
2023-02-17T02:39:43.286Z,19.71
2023-02-17T02:42:20.181Z,20.36
2023-02-17T02:44:52.373Z,19.78
2023-02-17T02:47:43.446Z,19.50
2023-02-17T02:50:17.923Z,20.43
2023-02-17T02:52:51.203Z,19.67
2023-02-17T02:55:46.793Z,19.26
2023-02-17T02:58:22.867Z,20.05
2023-02-17T03:01:06.062Z,20.78
2023-02-17T03:03:42.255Z,20.12
2023-02-17T03:06:26.195Z,20.09
2023-02-17T03:09:05.113Z,19.33
2023-02-17T03:11:38.099Z,20.12
2023-02-17T03:14:13.983Z,20.25
2023-02-17T03:16:48.333Z,19.92
2023-02-17T03:19:22.145Z,20.41
2023-02-17T03:22:06.908Z,19.96
2023-02-17T03:24:37.814Z,19.78
2023-02-17T03:27:08.311Z,20.38
2023-02-17T03:29:39.488Z,20.50
2023-02-17T03:32:10.509Z,20.72
2023-02-17T03:34:41.939Z,20.60
2023-02-17T03:37:12.441Z,20.63
2023-02-17T03:39:43.231Z,19.04
2023-02-17T03:42:14.353Z,19.38
2023-02-17T03:44:44.925Z,19.04
2023-02-17T03:47:15.575Z,19.30
2023-02-17T03:49:46.061Z,18.67
2023-02-17T03:52:16.854Z,19.83
2023-02-17T03:54:47.429Z,19.33
2023-02-17T03:57:17.983Z,19.48
2023-02-17T03:59:48.634Z,19.21
2023-02-17T04:02:19.203Z,19.12
2023-02-17T04:04:49.953Z,18.50
2023-02-17T04:07:20.515Z,18.99
2023-02-17T04:09:51.075Z,19.51
2023-02-17T04:12:21.611Z,19.22
2023-02-17T04:14:52.117Z,18.38
2023-02-17T04:17:22.633Z,19.56
2023-02-17T04:19:53.886Z,19.80
2023-02-17T04:22:24.736Z,19.17
2023-02-17T04:24:55.232Z,19.47
2023-02-17T04:27:25.780Z,18.63
2023-02-17T04:29:56.338Z,19.72
2023-02-17T04:32:27.287Z,19.20
2023-02-17T04:34:57.845Z,19.57
2023-02-17T04:37:28.397Z,18.56
2023-02-17T04:40:00.181Z,17.85
2023-02-17T04:42:30.716Z,18.37
2023-02-17T04:45:01.316Z,18.99
2023-02-17T04:50:01.516Z,19.20
2023-02-17T04:52:32.038Z,18.73
2023-02-17T04:55:02.566Z,19.20
2023-02-17T04:57:33.182Z,18.55
2023-02-17T05:00:05.054Z,18.91
2023-02-17T05:02:35.581Z,18.77
2023-02-17T05:05:06.235Z,18.08
2023-02-17T05:07:36.885Z,18.68
2023-02-17T05:10:08.008Z,19.02
2023-02-17T05:12:40.493Z,18.99
2023-02-17T05:15:12.375Z,18.45
2023-02-17T05:17:42.930Z,19.96
2023-02-17T05:20:13.868Z,18.37
2023-02-17T05:22:44.511Z,19.58
2023-02-17T05:25:15.477Z,20.02
2023-02-17T05:27:47.709Z,19.26
2023-02-17T05:30:19.130Z,19.35
2023-02-17T05:32:49.975Z,19.85
2023-02-17T05:35:20.681Z,19.02
2023-02-17T05:37:53.062Z,19.26
2023-02-17T05:40:23.676Z,18.32
2023-02-17T05:42:54.344Z,18.19
2023-02-17T05:45:24.933Z,19.37
2023-02-17T05:47:56.648Z,18.23
2023-02-17T05:50:28.556Z,18.93
2023-02-17T05:52:59.231Z,18.19
2023-02-17T05:55:31.502Z,18.19
2023-02-17T05:58:02.143Z,18.99
2023-02-17T06:00:32.969Z,18.85
2023-02-17T06:03:03.597Z,19.72
2023-02-17T06:05:34.294Z,19.11
2023-02-17T06:08:04.860Z,18.45
2023-02-17T06:10:37.900Z,20.18
2023-02-17T06:13:11.193Z,19.58
2023-02-17T06:15:42.863Z,20.11
2023-02-17T06:18:14.526Z,18.57
2023-02-17T06:20:47.649Z,19.12
2023-02-17T06:23:24.830Z,18.97
2023-02-17T06:26:00.441Z,19.94
2023-02-17T06:28:35.056Z,18.84
2023-02-17T06:31:16.901Z,18.89
2023-02-17T06:33:48.747Z,18.24
2023-02-17T06:36:22.506Z,18.63
2023-02-17T06:39:02.307Z,18.51
2023-02-17T06:41:33.975Z,16.94
2023-02-17T06:44:07.091Z,18.30
2023-02-17T06:46:41.366Z,18.03
2023-02-17T06:49:15.093Z,18.71
2023-02-17T06:51:47.733Z,17.52
2023-02-17T06:54:20.418Z,18.82
2023-02-17T06:56:52.478Z,17.83
2023-02-17T06:59:24.560Z,17.89
2023-02-17T07:01:57.040Z,18.33
2023-02-17T07:04:28.695Z,18.65
2023-02-17T07:07:03.254Z,18.41
2023-02-17T07:13:06.027Z,18.98
2023-02-17T07:15:44.592Z,18.97
2023-02-17T07:18:22.975Z,17.93
2023-02-17T07:20:56.929Z,18.12
2023-02-17T07:23:33.766Z,19.36
2023-02-17T07:26:12.645Z,18.03
2023-02-17T07:29:00.963Z,18.00
2023-02-17T07:31:38.407Z,17.99
2023-02-17T07:34:11.320Z,18.03
2023-02-17T07:36:44.915Z,18.65
2023-02-17T07:39:18.521Z,16.99
2023-02-17T07:41:51.662Z,18.14
2023-02-17T07:44:25.068Z,17.87
2023-02-17T07:46:57.825Z,18.35
2023-02-17T07:49:30.556Z,17.91
2023-02-17T07:52:08.004Z,18.57
2023-02-17T07:54:44.716Z,18.86
2023-02-17T07:57:18.013Z,18.73
2023-02-17T07:59:50.534Z,18.55
2023-02-17T08:02:23.726Z,18.05
2023-02-17T08:04:56.094Z,19.67
2023-02-17T08:07:29.791Z,19.95
2023-02-17T08:10:16.763Z,19.11
2023-02-17T08:13:12.788Z,18.30
2023-02-17T08:15:45.261Z,17.47
2023-02-17T08:18:19.835Z,17.97
2023-02-17T08:20:53.254Z,17.61
2023-02-17T08:23:26.218Z,18.66
2023-02-17T08:25:59.798Z,18.76
2023-02-17T08:28:34.892Z,18.39
2023-02-17T08:31:12.144Z,18.17
2023-02-17T08:33:57.752Z,18.62
2023-02-17T08:36:48.480Z,17.62
2023-02-17T08:39:21.872Z,18.21
2023-02-17T08:41:59.288Z,20.19
2023-02-17T08:44:39.344Z,19.75
2023-02-17T08:47:13.952Z,20.35
2023-02-17T08:49:46.616Z,19.07
2023-02-17T08:52:19.611Z,18.67
2023-02-17T08:54:59.498Z,18.99
2023-02-17T08:57:33.495Z,19.20
2023-02-17T09:00:10.836Z,18.41
2023-02-17T09:02:46.231Z,18.66
2023-02-17T09:05:22.021Z,18.37
2023-02-17T09:07:55.212Z,18.66
2023-02-17T09:10:31.611Z,19.52
2023-02-17T09:13:02.951Z,19.16
2023-02-17T09:15:41.510Z,17.82
2023-02-17T09:18:14.215Z,19.28
2023-02-17T09:20:50.716Z,19.93
2023-02-17T09:23:23.902Z,18.76
2023-02-17T09:26:12.968Z,18.44
2023-02-17T09:28:50.394Z,18.83
2023-02-17T09:31:24.961Z,17.91
2023-02-17T09:33:59.612Z,18.84
2023-02-17T09:36:40.335Z,19.36
2023-02-17T09:39:16.567Z,18.94
2023-02-17T09:41:52.276Z,18.65
2023-02-17T09:44:32.636Z,17.77
2023-02-17T09:47:18.598Z,18.28
2023-02-17T09:50:00.471Z,17.60
2023-02-17T09:52:52.176Z,20.09
2023-02-17T09:55:36.969Z,18.88
2023-02-17T09:58:31.123Z,18.83
2023-02-17T10:01:10.317Z,18.03
2023-02-17T10:03:55.249Z,17.79
2023-02-17T10:06:34.666Z,20.05
2023-02-17T10:09:18.339Z,18.49
2023-02-17T10:12:06.828Z,19.71
2023-02-17T10:14:53.293Z,19.51
2023-02-17T10:17:35.042Z,18.90
2023-02-17T10:20:12.761Z,19.96
2023-02-17T10:22:48.601Z,20.53
2023-02-17T10:25:23.820Z,19.43
2023-02-17T10:28:13.586Z,20.29
2023-02-17T10:31:00.383Z,18.66
2023-02-17T10:33:41.444Z,18.94
2023-02-17T10:36:54.455Z,19.82
2023-02-17T10:39:40.171Z,19.98
2023-02-17T10:42:42.469Z,19.50
2023-02-17T10:45:48.276Z,19.18
2023-02-17T10:48:32.526Z,20.64
2023-02-17T10:51:19.981Z,20.43
2023-02-17T10:53:56.585Z,20.12
2023-02-17T10:56:47.439Z,19.56
2023-02-17T10:59:39.742Z,19.56
2023-02-17T11:02:39.200Z,20.09
2023-02-17T11:05:13.128Z,20.33
2023-02-17T11:07:49.780Z,18.98
2023-02-17T11:10:25.678Z,20.49
2023-02-17T11:12:58.964Z,19.32
2023-02-17T11:15:34.817Z,20.32
2023-02-17T11:18:11.567Z,19.69
2023-02-17T11:20:44.258Z,20.39
2023-02-17T11:23:23.906Z,20.39
2023-02-17T11:26:04.089Z,19.01
2023-02-17T11:28:38.706Z,19.01
2023-02-17T11:31:26.229Z,21.91
2023-02-17T11:33:58.554Z,21.91
2023-02-17T11:36:33.058Z,23.59
2023-02-17T11:39:16.936Z,21.89
2023-02-17T11:41:49.306Z,21.39
2023-02-17T11:44:28.899Z,22.09
2023-02-17T11:47:06.138Z,19.77
2023-02-17T11:50:08.297Z,19.71
2023-02-17T11:53:03.889Z,19.54
2023-02-17T11:55:46.632Z,19.82
2023-02-17T11:58:27.419Z,20.08
2023-02-17T12:01:13.280Z,21.38
2023-02-17T12:03:45.265Z,20.88
2023-02-17T12:06:42.808Z,20.83
2023-02-17T12:09:43.759Z,21.41
2023-02-17T12:12:21.816Z,21.41
2023-02-17T12:15:06.228Z,19.87
2023-02-17T12:17:53.834Z,20.64
2023-02-17T12:20:41.264Z,20.32
2023-02-17T12:23:26.150Z,19.21
2023-02-17T12:26:14.410Z,21.41
2023-02-17T12:29:10.539Z,21.33
2023-02-17T12:32:19.646Z,20.87
2023-02-17T12:35:26.462Z,21.75
2023-02-17T12:38:00.687Z,20.48
2023-02-17T12:40:40.916Z,20.10
2023-02-17T12:43:29.390Z,20.86
2023-02-17T12:46:05.607Z,20.65
2023-02-17T12:49:16.175Z,20.56
2023-02-17T12:51:56.013Z,20.77
2023-02-17T12:54:32.271Z,20.68
2023-02-17T12:57:14.110Z,25.41
2023-02-17T12:59:54.768Z,23.61
2023-02-17T13:02:28.784Z,22.17
2023-02-17T13:05:04.702Z,22.27
2023-02-17T13:07:39.749Z,22.27
2023-02-17T13:10:31.986Z,23.38
2023-02-17T13:13:08.482Z,22.16
2023-02-17T13:15:44.149Z,22.28
2023-02-17T13:18:38.584Z,22.28
2023-02-17T13:21:38.024Z,22.02
2023-02-17T13:24:18.530Z,22.02
2023-02-17T13:26:50.677Z,21.18
2023-02-17T13:29:30.216Z,21.18
2023-02-17T13:32:04.111Z,22.54
2023-02-17T13:34:39.452Z,21.02
2023-02-17T13:37:36.398Z,21.02
2023-02-17T13:40:22.303Z,22.05
2023-02-17T13:43:01.879Z,22.05
2023-02-17T13:45:39.219Z,22.16
2023-02-17T13:48:18.686Z,22.16
2023-02-17T13:50:53.176Z,21.81
2023-02-17T13:53:46.816Z,21.61
2023-02-17T13:56:32.821Z,22.79
2023-02-17T13:59:19.760Z,21.55
2023-02-17T14:01:55.586Z,22.42
2023-02-17T14:04:34.482Z,21.56
2023-02-17T14:07:10.139Z,21.80
2023-02-17T14:09:49.259Z,21.66
2023-02-17T14:12:26.231Z,22.02
2023-02-17T14:14:57.242Z,22.17
2023-02-17T14:17:35.422Z,22.16
2023-02-17T14:20:17.844Z,20.87
2023-02-17T14:23:03.539Z,21.99
2023-02-17T14:25:33.328Z,21.93
2023-02-17T14:28:05.045Z,22.30
2023-02-17T14:30:39.435Z,20.95
2023-02-17T14:33:23.112Z,20.95
2023-02-17T14:36:00.650Z,22.55
2023-02-17T14:38:46.739Z,22.30
2023-02-17T14:41:19.812Z,21.40
2023-02-17T14:43:53.371Z,21.40
2023-02-17T14:46:26.436Z,22.19
2023-02-17T14:49:01.370Z,20.99
2023-02-17T14:51:41.272Z,21.45
2023-02-17T14:54:19.932Z,21.42
2023-02-17T14:57:03.180Z,21.56
2023-02-17T14:59:38.156Z,21.86
2023-02-17T15:02:24.031Z,20.99
2023-02-17T15:05:01.984Z,20.96
2023-02-17T15:07:36.392Z,20.81
2023-02-17T15:10:20.985Z,22.71
2023-02-17T15:12:55.497Z,20.89
2023-02-17T15:15:28.997Z,20.83
2023-02-17T15:18:05.095Z,22.44
2023-02-17T15:20:37.537Z,21.08
2023-02-17T15:23:16.661Z,21.12
2023-02-17T15:25:48.974Z,21.64
2023-02-17T15:28:21.482Z,21.35
2023-02-17T15:30:57.873Z,20.94
2023-02-17T15:33:29.159Z,21.42
2023-02-17T15:36:02.406Z,21.28
2023-02-17T15:38:32.972Z,22.31
2023-02-17T15:41:05.916Z,23.82
2023-02-17T15:43:37.623Z,22.19
2023-02-17T15:46:19.168Z,22.29
2023-02-17T15:48:50.139Z,22.11
2023-02-17T15:51:21.673Z,21.26
2023-02-17T15:53:53.864Z,20.23
2023-02-17T15:56:27.490Z,21.59
2023-02-17T15:59:00.563Z,21.59
2023-02-17T16:01:34.142Z,21.33
2023-02-17T16:04:05.093Z,20.95
2023-02-17T16:06:35.596Z,21.82
2023-02-17T16:09:06.532Z,20.90
2023-02-17T16:11:39.702Z,20.02
2023-02-17T16:14:12.878Z,22.36
2023-02-17T16:16:43.609Z,21.92
2023-02-17T16:19:14.487Z,20.92
2023-02-17T16:21:44.901Z,21.10
2023-02-17T16:24:15.523Z,21.27
2023-02-17T16:26:46.391Z,21.73
2023-02-17T16:29:22.559Z,22.03
2023-02-17T16:31:53.191Z,22.19
2023-02-17T16:34:26.336Z,22.09
2023-02-17T16:36:59.927Z,22.24
2023-02-17T16:39:30.734Z,21.79
2023-02-17T16:42:01.241Z,20.55
2023-02-17T16:44:32.047Z,21.70
2023-02-17T16:47:02.954Z,21.13
2023-02-17T16:49:41.425Z,20.89
2023-02-17T16:52:27.102Z,34.37
2023-02-17T16:54:57.746Z,28.50
2023-02-17T16:57:29.839Z,23.48
2023-02-17T17:00:00.587Z,21.64
2023-02-17T17:02:31.371Z,22.30
2023-02-17T17:05:01.980Z,22.66
2023-02-17T17:07:33.401Z,23.45
2023-02-17T17:10:16.372Z,22.81
2023-02-17T17:12:38.118Z,22.85
2023-02-17T17:15:10.799Z,22.80
2023-02-17T17:17:44.613Z,23.06
2023-02-17T17:20:21.236Z,23.12
2023-02-17T17:22:51.819Z,22.19
2023-02-17T17:25:22.381Z,22.19
2023-02-17T17:27:52.914Z,21.64
2023-02-17T17:30:27.239Z,22.45
2023-02-17T17:32:57.718Z,22.36
2023-02-17T17:35:29.307Z,22.08
2023-02-17T17:37:59.907Z,21.24
2023-02-17T17:40:33.896Z,21.74
2023-02-17T17:43:04.525Z,22.56
2023-02-17T17:45:35.266Z,22.66
2023-02-17T17:48:06.670Z,22.27
2023-02-17T17:50:37.342Z,21.52
2023-02-17T17:53:08.026Z,21.26
2023-02-17T17:55:40.873Z,21.34
2023-02-17T17:58:11.544Z,21.16
2023-02-17T18:00:42.121Z,22.34
2023-02-17T18:03:13.842Z,22.78
2023-02-17T18:05:45.782Z,22.95
2023-02-17T18:08:17.004Z,22.62
2023-02-17T18:10:47.874Z,23.23
2023-02-17T18:13:18.453Z,22.33
2023-02-17T18:15:49.508Z,22.75
2023-02-17T18:18:24.061Z,23.63
2023-02-17T18:20:54.566Z,21.89
2023-02-17T18:23:26.249Z,23.70
2023-02-17T18:25:58.012Z,23.69
2023-02-17T18:28:28.985Z,22.51
2023-02-17T18:30:59.632Z,21.75
2023-02-17T18:33:30.190Z,22.07
2023-02-17T18:36:10.399Z,22.53
2023-02-17T18:38:40.935Z,22.86
2023-02-17T18:41:21.038Z,22.86
2023-02-17T18:43:52.322Z,23.24
2023-02-17T18:46:25.177Z,21.97
2023-02-17T18:48:56.716Z,22.69
2023-02-17T18:51:27.984Z,22.31
2023-02-17T18:54:00.836Z,22.62
2023-02-17T18:56:34.129Z,22.43
2023-02-17T18:59:04.597Z,22.73
2023-02-17T19:01:38.786Z,22.40
2023-02-17T19:04:10.044Z,22.17
2023-02-17T19:06:42.730Z,23.08
2023-02-17T19:09:13.224Z,22.41
2023-02-17T19:11:43.766Z,23.34
2023-02-17T19:14:14.316Z,23.15
2023-02-17T19:16:46.924Z,22.57
2023-02-17T19:19:17.577Z,22.70
2023-02-17T19:21:48.663Z,22.30
2023-02-17T19:24:19.144Z,23.34
2023-02-17T19:26:50.951Z,22.84
2023-02-17T19:29:22.856Z,22.80
2023-02-17T19:31:53.697Z,23.23
2023-02-17T19:34:24.546Z,22.51
2023-02-17T19:36:55.130Z,23.09
2023-02-17T19:39:25.707Z,22.72
2023-02-17T19:41:56.352Z,22.56
2023-02-17T19:44:26.823Z,23.62
2023-02-17T19:46:57.659Z,23.18
2023-02-17T19:49:28.245Z,23.32
2023-02-17T19:51:58.764Z,22.96
2023-02-17T19:54:29.643Z,22.87
2023-02-17T19:57:01.276Z,23.00
2023-02-17T19:59:34.045Z,23.40
2023-02-17T20:02:04.650Z,23.59
2023-02-17T20:04:35.379Z,23.01
2023-02-17T20:07:05.969Z,22.02
2023-02-17T20:09:37.621Z,21.72
2023-02-17T20:12:09.021Z,22.38
2023-02-17T20:14:39.604Z,22.38
2023-02-17T20:17:11.723Z,21.49
2023-02-17T20:19:43.410Z,20.67
2023-02-17T20:22:14.085Z,20.54
2023-02-17T20:24:47.598Z,21.49
2023-02-17T20:27:28.056Z,21.26
2023-02-17T20:30:06.741Z,21.87
2023-02-17T20:32:37.968Z,20.73
2023-02-17T20:35:12.023Z,21.73
2023-02-17T20:37:42.684Z,21.65
2023-02-17T20:40:13.340Z,21.21
2023-02-17T20:42:45.095Z,20.95
2023-02-17T20:45:15.622Z,21.75
2023-02-17T20:47:46.550Z,21.72
2023-02-17T20:50:20.337Z,22.14
2023-02-17T20:52:51.296Z,21.21
2023-02-17T20:55:23.022Z,20.86
2023-02-17T20:57:54.924Z,21.72
2023-02-17T21:00:27.961Z,21.04
2023-02-17T21:02:59.177Z,21.05
2023-02-17T21:05:33.801Z,21.56
2023-02-17T21:08:08.022Z,21.29
2023-02-17T21:10:41.264Z,20.69
2023-02-17T21:13:12.501Z,21.84
2023-02-17T21:15:47.496Z,21.58
2023-02-17T21:18:20.933Z,21.68
2023-02-17T22:00:59.354Z,16.94
2023-02-17T22:03:30.041Z,16.45
2023-02-17T22:06:00.674Z,17.31
2023-02-17T22:08:34.216Z,17.17
2023-02-17T22:11:05.169Z,17.64
2023-02-17T22:13:35.682Z,17.67
2023-02-17T22:16:06.843Z,17.33
2023-02-17T22:18:37.616Z,17.64
2023-02-17T22:21:15.319Z,16.26
2023-02-17T22:23:46.295Z,16.86
2023-02-17T22:26:22.667Z,17.26
2023-02-17T22:28:54.412Z,16.90
2023-02-17T22:31:27.569Z,17.03
2023-02-17T22:33:59.929Z,17.29
2023-02-17T22:36:36.258Z,17.97
2023-02-17T22:39:09.043Z,18.86
2023-02-17T22:41:41.041Z,18.51
2023-02-17T22:44:11.662Z,18.60
2023-02-17T22:46:42.185Z,18.94
2023-02-17T22:49:13.853Z,18.46
2023-02-17T22:51:44.335Z,18.11
2023-02-17T22:54:14.857Z,18.37
2023-02-17T22:56:45.386Z,18.97
2023-02-17T22:59:15.973Z,17.48
2023-02-17T23:01:46.873Z,17.74
2023-02-17T23:04:18.330Z,17.34
2023-02-17T23:06:49.904Z,17.48
2023-02-17T23:09:21.550Z,15.87
2023-02-17T23:11:54.351Z,17.38
2023-02-17T23:14:33.979Z,17.92
2023-02-17T23:17:07.329Z,16.52
2023-02-17T23:19:41.021Z,16.28
2023-02-17T23:22:16.826Z,16.45
2023-02-17T23:24:49.005Z,16.84
2023-02-17T23:27:19.636Z,16.84
2023-02-17T23:29:50.253Z,16.51
2023-02-17T23:32:20.778Z,16.51
2023-02-17T23:34:51.800Z,17.55
2023-02-17T23:37:23.695Z,17.69
2023-02-17T23:39:54.317Z,17.06
2023-02-17T23:42:24.949Z,16.63
2023-02-17T23:44:56.701Z,16.63
2023-02-17T23:47:27.178Z,16.54
2023-02-17T23:49:58.881Z,17.31
2023-02-17T23:52:29.482Z,16.93
2023-02-17T23:55:00.086Z,17.31
2023-02-17T23:57:30.570Z,15.94
